sensor_id;sensor_type;location;lat;lon;timestamp;P1;durP1;ratioP1;P2;durP2;ratioP2
44564;SDS011;30275;51.822;-0.326;2022-07-31T00:00:09;2.15;;;1.20;;
44564;SDS011;30275;51.822;-0.326;2022-07-31T00:02:35;1.55;;;1.30;;
44564;SDS011;30275;51.822;-0.326;2022-07-31T00:05:02;1.98;;;1.23;;
44564;SDS011;30275;51.822;-0.326;2022-07-31T00:07:28;1.67;;;1.10;;
44564;SDS011;30275;51.822;-0.326;2022-07-31T00:09:53;1.48;;;1.13;;
44564;SDS011;30275;51.822;-0.326;2022-07-31T00:12:20;1.30;;;1.20;;
44564;SDS011;30275;51.822;-0.326;2022-07-31T00:14:46;1.45;;;1.15;;
44564;SDS011;30275;51.822;-0.326;2022-07-31T00:17:12;1.23;;;1.10;;
44564;SDS011;30275;51.822;-0.326;2022-07-31T00:19:38;1.45;;;1.30;;
44564;SDS011;30275;51.822;-0.326;2022-07-31T00:22:04;1.40;;;1.17;;
44564;SDS011;30275;51.822;-0.326;2022-07-31T00:24:30;2.80;;;1.55;;
44564;SDS011;30275;51.822;-0.326;2022-07-31T00:26:56;2.15;;;1.63;;
44564;SDS011;30275;51.822;-0.326;2022-07-31T00:29:21;1.85;;;1.35;;
44564;SDS011;30275;51.822;-0.326;2022-07-31T00:31:47;1.40;;;1.17;;
44564;SDS011;30275;51.822;-0.326;2022-07-31T00:34:13;2.65;;;1.70;;
44564;SDS011;30275;51.822;-0.326;2022-07-31T00:36:38;1.70;;;1.30;;
44564;SDS011;30275;51.822;-0.326;2022-07-31T00:39:04;1.98;;;1.48;;
44564;SDS011;30275;51.822;-0.326;2022-07-31T00:41:39;1.58;;;1.35;;
44564;SDS011;30275;51.822;-0.326;2022-07-31T00:44:07;2.08;;;1.60;;
44564;SDS011;30275;51.822;-0.326;2022-07-31T00:46:33;2.38;;;1.38;;
44564;SDS011;30275;51.822;-0.326;2022-07-31T00:48:59;2.55;;;1.55;;
44564;SDS011;30275;51.822;-0.326;2022-07-31T00:51:24;2.50;;;1.48;;
44564;SDS011;30275;51.822;-0.326;2022-07-31T00:53:50;3.75;;;1.55;;
44564;SDS011;30275;51.822;-0.326;2022-07-31T00:56:16;2.50;;;1.40;;
44564;SDS011;30275;51.822;-0.326;2022-07-31T00:58:41;1.65;;;1.27;;
44564;SDS011;30275;51.822;-0.326;2022-07-31T01:01:07;3.22;;;1.58;;
44564;SDS011;30275;51.822;-0.326;2022-07-31T01:03:32;2.53;;;1.23;;
44564;SDS011;30275;51.822;-0.326;2022-07-31T01:05:58;2.70;;;1.83;;
44564;SDS011;30275;51.822;-0.326;2022-07-31T01:08:24;2.70;;;1.60;;
44564;SDS011;30275;51.822;-0.326;2022-07-31T01:13:53;1.40;;;1.30;;
44564;SDS011;30275;51.822;-0.326;2022-07-31T01:16:23;2.30;;;1.52;;
44564;SDS011;30275;51.822;-0.326;2022-07-31T01:18:52;1.83;;;1.45;;
44564;SDS011;30275;51.822;-0.326;2022-07-31T01:21:28;2.47;;;1.63;;
44564;SDS011;30275;51.822;-0.326;2022-07-31T01:25:09;2.13;;;1.60;;
44564;SDS011;30275;51.822;-0.326;2022-07-31T01:27:29;2.75;;;1.70;;
44564;SDS011;30275;51.822;-0.326;2022-07-31T01:30:08;2.58;;;2.00;;
44564;SDS011;30275;51.822;-0.326;2022-07-31T01:32:36;2.08;;;1.70;;
44564;SDS011;30275;51.822;-0.326;2022-07-31T01:35:07;3.47;;;1.50;;
44564;SDS011;30275;51.822;-0.326;2022-07-31T01:37:54;2.30;;;1.33;;
44564;SDS011;30275;51.822;-0.326;2022-07-31T01:40:26;2.72;;;1.90;;
44564;SDS011;30275;51.822;-0.326;2022-07-31T01:43:05;3.20;;;1.60;;
44564;SDS011;30275;51.822;-0.326;2022-07-31T01:45:42;2.15;;;1.63;;
44564;SDS011;30275;51.822;-0.326;2022-07-31T01:48:10;1.88;;;1.52;;
44564;SDS011;30275;51.822;-0.326;2022-07-31T01:50:38;2.88;;;1.60;;
44564;SDS011;30275;51.822;-0.326;2022-07-31T01:53:06;2.15;;;1.40;;
44564;SDS011;30275;51.822;-0.326;2022-07-31T01:55:34;2.03;;;1.70;;
44564;SDS011;30275;51.822;-0.326;2022-07-31T01:58:00;2.40;;;1.70;;
44564;SDS011;30275;51.822;-0.326;2022-07-31T02:00:27;4.32;;;1.50;;
44564;SDS011;30275;51.822;-0.326;2022-07-31T02:02:53;2.85;;;1.58;;
44564;SDS011;30275;51.822;-0.326;2022-07-31T02:05:21;2.45;;;1.70;;
44564;SDS011;30275;51.822;-0.326;2022-07-31T02:07:47;2.13;;;1.40;;
44564;SDS011;30275;51.822;-0.326;2022-07-31T02:10:14;2.17;;;1.60;;
44564;SDS011;30275;51.822;-0.326;2022-07-31T02:12:42;4.00;;;2.35;;
44564;SDS011;30275;51.822;-0.326;2022-07-31T02:15:09;2.63;;;1.58;;
44564;SDS011;30275;51.822;-0.326;2022-07-31T02:17:37;2.90;;;2.30;;
44564;SDS011;30275;51.822;-0.326;2022-07-31T02:20:04;3.25;;;1.90;;
44564;SDS011;30275;51.822;-0.326;2022-07-31T02:22:32;1.65;;;1.38;;
44564;SDS011;30275;51.822;-0.326;2022-07-31T02:24:59;2.42;;;1.63;;
44564;SDS011;30275;51.822;-0.326;2022-07-31T02:27:25;2.20;;;1.58;;
44564;SDS011;30275;51.822;-0.326;2022-07-31T02:29:52;3.20;;;1.30;;
44564;SDS011;30275;51.822;-0.326;2022-07-31T02:32:21;1.80;;;1.52;;
44564;SDS011;30275;51.822;-0.326;2022-07-31T02:34:49;1.60;;;1.40;;
44564;SDS011;30275;51.822;-0.326;2022-07-31T02:37:19;1.80;;;1.60;;
44564;SDS011;30275;51.822;-0.326;2022-07-31T02:39:48;1.75;;;1.55;;
44564;SDS011;30275;51.822;-0.326;2022-07-31T02:42:15;2.17;;;1.65;;
44564;SDS011;30275;51.822;-0.326;2022-07-31T02:44:42;2.03;;;1.60;;
44564;SDS011;30275;51.822;-0.326;2022-07-31T02:47:08;3.00;;;1.63;;
44564;SDS011;30275;51.822;-0.326;2022-07-31T02:49:35;2.67;;;1.73;;
44564;SDS011;30275;51.822;-0.326;2022-07-31T02:52:02;2.78;;;1.45;;
44564;SDS011;30275;51.822;-0.326;2022-07-31T02:54:28;2.33;;;1.40;;
44564;SDS011;30275;51.822;-0.326;2022-07-31T02:56:55;5.88;;;1.50;;
44564;SDS011;30275;51.822;-0.326;2022-07-31T02:59:22;1.58;;;1.30;;
44564;SDS011;30275;51.822;-0.326;2022-07-31T03:01:47;1.40;;;1.25;;
44564;SDS011;30275;51.822;-0.326;2022-07-31T03:04:13;2.08;;;1.98;;
44564;SDS011;30275;51.822;-0.326;2022-07-31T03:06:39;2.33;;;1.65;;
44564;SDS011;30275;51.822;-0.326;2022-07-31T03:09:05;1.75;;;1.40;;
44564;SDS011;30275;51.822;-0.326;2022-07-31T03:11:30;1.73;;;1.52;;
44564;SDS011;30275;51.822;-0.326;2022-07-31T03:13:56;2.40;;;1.50;;
44564;SDS011;30275;51.822;-0.326;2022-07-31T03:16:24;2.58;;;1.48;;
44564;SDS011;30275;51.822;-0.326;2022-07-31T03:18:52;1.85;;;1.67;;
44564;SDS011;30275;51.822;-0.326;2022-07-31T03:21:19;3.08;;;1.40;;
44564;SDS011;30275;51.822;-0.326;2022-07-31T03:23:46;1.55;;;1.30;;
44564;SDS011;30275;51.822;-0.326;2022-07-31T03:26:12;2.42;;;1.58;;
44564;SDS011;30275;51.822;-0.326;2022-07-31T03:28:39;2.42;;;1.52;;
44564;SDS011;30275;51.822;-0.326;2022-07-31T03:31:04;1.73;;;1.23;;
44564;SDS011;30275;51.822;-0.326;2022-07-31T03:33:32;2.10;;;1.58;;
44564;SDS011;30275;51.822;-0.326;2022-07-31T03:35:58;1.92;;;1.50;;
44564;SDS011;30275;51.822;-0.326;2022-07-31T03:38:24;2.20;;;1.50;;
44564;SDS011;30275;51.822;-0.326;2022-07-31T03:40:50;2.47;;;1.70;;
44564;SDS011;30275;51.822;-0.326;2022-07-31T03:43:16;1.48;;;1.38;;
44564;SDS011;30275;51.822;-0.326;2022-07-31T03:45:43;1.52;;;1.40;;
44564;SDS011;30275;51.822;-0.326;2022-07-31T03:48:09;2.08;;;1.38;;
44564;SDS011;30275;51.822;-0.326;2022-07-31T03:50:36;1.35;;;1.23;;
44564;SDS011;30275;51.822;-0.326;2022-07-31T03:53:03;2.20;;;1.60;;
44564;SDS011;30275;51.822;-0.326;2022-07-31T03:55:30;1.92;;;1.58;;
44564;SDS011;30275;51.822;-0.326;2022-07-31T03:57:59;2.42;;;1.70;;
44564;SDS011;30275;51.822;-0.326;2022-07-31T04:00:26;1.80;;;1.52;;
44564;SDS011;30275;51.822;-0.326;2022-07-31T04:02:53;2.63;;;1.75;;
44564;SDS011;30275;51.822;-0.326;2022-07-31T04:05:20;2.08;;;1.33;;
44564;SDS011;30275;51.822;-0.326;2022-07-31T04:07:46;2.90;;;1.58;;
44564;SDS011;30275;51.822;-0.326;2022-07-31T04:10:12;1.92;;;1.70;;
44564;SDS011;30275;51.822;-0.326;2022-07-31T04:12:37;1.40;;;1.30;;
44564;SDS011;30275;51.822;-0.326;2022-07-31T04:15:03;1.25;;;1.15;;
44564;SDS011;30275;51.822;-0.326;2022-07-31T04:17:29;5.07;;;1.70;;
44564;SDS011;30275;51.822;-0.326;2022-07-31T04:19:55;2.28;;;1.55;;
44564;SDS011;30275;51.822;-0.326;2022-07-31T04:22:20;2.70;;;1.40;;
44564;SDS011;30275;51.822;-0.326;2022-07-31T04:24:46;3.92;;;1.90;;
44564;SDS011;30275;51.822;-0.326;2022-07-31T04:27:14;3.38;;;2.17;;
44564;SDS011;30275;51.822;-0.326;2022-07-31T04:29:41;2.53;;;1.60;;
44564;SDS011;30275;51.822;-0.326;2022-07-31T04:32:07;3.03;;;1.70;;
44564;SDS011;30275;51.822;-0.326;2022-07-31T04:34:33;4.15;;;2.58;;
44564;SDS011;30275;51.822;-0.326;2022-07-31T04:36:58;1.83;;;1.45;;
44564;SDS011;30275;51.822;-0.326;2022-07-31T04:39:24;2.42;;;1.50;;
44564;SDS011;30275;51.822;-0.326;2022-07-31T04:41:50;3.17;;;1.33;;
44564;SDS011;30275;51.822;-0.326;2022-07-31T04:44:16;3.10;;;1.58;;
44564;SDS011;30275;51.822;-0.326;2022-07-31T04:46:41;3.88;;;1.50;;
44564;SDS011;30275;51.822;-0.326;2022-07-31T04:49:08;3.72;;;1.40;;
44564;SDS011;30275;51.822;-0.326;2022-07-31T04:51:37;2.08;;;1.48;;
44564;SDS011;30275;51.822;-0.326;2022-07-31T04:54:03;3.05;;;1.83;;
44564;SDS011;30275;51.822;-0.326;2022-07-31T04:56:28;3.47;;;1.33;;
44564;SDS011;30275;51.822;-0.326;2022-07-31T04:58:57;1.58;;;1.25;;
44564;SDS011;30275;51.822;-0.326;2022-07-31T05:01:23;4.95;;;1.60;;
44564;SDS011;30275;51.822;-0.326;2022-07-31T05:03:49;5.55;;;1.63;;
44564;SDS011;30275;51.822;-0.326;2022-07-31T05:06:15;3.33;;;1.75;;
44564;SDS011;30275;51.822;-0.326;2022-07-31T05:08:41;2.75;;;1.52;;
44564;SDS011;30275;51.822;-0.326;2022-07-31T05:11:07;3.30;;;1.60;;
44564;SDS011;30275;51.822;-0.326;2022-07-31T05:13:52;2.28;;;1.60;;
44564;SDS011;30275;51.822;-0.326;2022-07-31T05:16:20;2.85;;;1.60;;
44564;SDS011;30275;51.822;-0.326;2022-07-31T05:18:47;2.95;;;1.40;;
44564;SDS011;30275;51.822;-0.326;2022-07-31T05:21:14;3.20;;;1.45;;
44564;SDS011;30275;51.822;-0.326;2022-07-31T05:23:41;5.97;;;1.77;;
44564;SDS011;30275;51.822;-0.326;2022-07-31T05:26:08;3.40;;;1.70;;
44564;SDS011;30275;51.822;-0.326;2022-07-31T05:28:35;5.07;;;1.90;;
44564;SDS011;30275;51.822;-0.326;2022-07-31T05:31:01;3.38;;;1.65;;
44564;SDS011;30275;51.822;-0.326;2022-07-31T05:33:28;2.90;;;1.42;;
44564;SDS011;30275;51.822;-0.326;2022-07-31T05:35:54;2.17;;;1.30;;
44564;SDS011;30275;51.822;-0.326;2022-07-31T05:38:20;2.33;;;1.55;;
44564;SDS011;30275;51.822;-0.326;2022-07-31T05:40:46;2.85;;;1.60;;
44564;SDS011;30275;51.822;-0.326;2022-07-31T05:43:12;1.55;;;1.25;;
44564;SDS011;30275;51.822;-0.326;2022-07-31T05:45:37;2.35;;;1.35;;
44564;SDS011;30275;51.822;-0.326;2022-07-31T05:48:03;1.60;;;1.50;;
44564;SDS011;30275;51.822;-0.326;2022-07-31T05:50:29;2.63;;;1.30;;
44564;SDS011;30275;51.822;-0.326;2022-07-31T05:52:55;1.88;;;1.38;;
44564;SDS011;30275;51.822;-0.326;2022-07-31T05:55:21;2.08;;;1.60;;
44564;SDS011;30275;51.822;-0.326;2022-07-31T05:57:47;2.35;;;1.60;;
44564;SDS011;30275;51.822;-0.326;2022-07-31T06:00:13;2.58;;;1.45;;
44564;SDS011;30275;51.822;-0.326;2022-07-31T06:02:40;1.95;;;1.30;;
44564;SDS011;30275;51.822;-0.326;2022-07-31T06:05:06;2.42;;;1.60;;
44564;SDS011;30275;51.822;-0.326;2022-07-31T06:07:32;2.42;;;1.30;;
44564;SDS011;30275;51.822;-0.326;2022-07-31T06:09:58;2.38;;;1.40;;
44564;SDS011;30275;51.822;-0.326;2022-07-31T06:12:24;2.40;;;1.48;;
44564;SDS011;30275;51.822;-0.326;2022-07-31T06:14:50;2.05;;;1.30;;
44564;SDS011;30275;51.822;-0.326;2022-07-31T06:17:15;2.92;;;1.50;;
44564;SDS011;30275;51.822;-0.326;2022-07-31T06:19:41;3.05;;;1.45;;
44564;SDS011;30275;51.822;-0.326;2022-07-31T06:22:07;2.45;;;1.50;;
44564;SDS011;30275;51.822;-0.326;2022-07-31T06:24:32;2.45;;;1.67;;
44564;SDS011;30275;51.822;-0.326;2022-07-31T06:26:58;2.55;;;1.35;;
44564;SDS011;30275;51.822;-0.326;2022-07-31T06:29:25;1.27;;;1.17;;
44564;SDS011;30275;51.822;-0.326;2022-07-31T06:31:52;1.55;;;1.45;;
44564;SDS011;30275;51.822;-0.326;2022-07-31T06:34:18;4.90;;;1.52;;
44564;SDS011;30275;51.822;-0.326;2022-07-31T06:36:44;1.92;;;1.42;;
44564;SDS011;30275;51.822;-0.326;2022-07-31T06:39:10;3.08;;;1.38;;
44564;SDS011;30275;51.822;-0.326;2022-07-31T06:41:36;2.85;;;1.60;;
44564;SDS011;30275;51.822;-0.326;2022-07-31T06:44:13;4.10;;;1.80;;
44564;SDS011;30275;51.822;-0.326;2022-07-31T06:46:41;3.42;;;1.63;;
44564;SDS011;30275;51.822;-0.326;2022-07-31T06:49:07;3.28;;;1.63;;
44564;SDS011;30275;51.822;-0.326;2022-07-31T06:51:32;2.42;;;1.55;;
44564;SDS011;30275;51.822;-0.326;2022-07-31T06:53:59;1.58;;;1.20;;
44564;SDS011;30275;51.822;-0.326;2022-07-31T06:56:25;2.78;;;1.65;;
44564;SDS011;30275;51.822;-0.326;2022-07-31T06:58:52;1.58;;;1.45;;
44564;SDS011;30275;51.822;-0.326;2022-07-31T07:01:20;2.92;;;1.83;;
44564;SDS011;30275;51.822;-0.326;2022-07-31T07:03:46;1.95;;;1.60;;
44564;SDS011;30275;51.822;-0.326;2022-07-31T07:06:12;4.20;;;1.83;;
44564;SDS011;30275;51.822;-0.326;2022-07-31T07:08:38;6.10;;;1.95;;
44564;SDS011;30275;51.822;-0.326;2022-07-31T07:11:04;5.65;;;2.00;;
44564;SDS011;30275;51.822;-0.326;2022-07-31T07:13:30;3.60;;;1.60;;
44564;SDS011;30275;51.822;-0.326;2022-07-31T07:15:55;4.45;;;1.45;;
44564;SDS011;30275;51.822;-0.326;2022-07-31T07:18:21;4.95;;;2.35;;
44564;SDS011;30275;51.822;-0.326;2022-07-31T07:20:47;2.50;;;1.60;;
44564;SDS011;30275;51.822;-0.326;2022-07-31T07:23:13;5.15;;;1.80;;
44564;SDS011;30275;51.822;-0.326;2022-07-31T07:25:39;10.50;;;2.00;;
44564;SDS011;30275;51.822;-0.326;2022-07-31T07:28:06;7.47;;;2.38;;
44564;SDS011;30275;51.822;-0.326;2022-07-31T07:30:32;10.07;;;2.65;;
44564;SDS011;30275;51.822;-0.326;2022-07-31T07:32:58;2.72;;;1.73;;
44564;SDS011;30275;51.822;-0.326;2022-07-31T07:35:24;2.42;;;1.63;;
44564;SDS011;30275;51.822;-0.326;2022-07-31T07:37:50;3.15;;;1.45;;
44564;SDS011;30275;51.822;-0.326;2022-07-31T07:40:16;2.03;;;1.50;;
44564;SDS011;30275;51.822;-0.326;2022-07-31T07:42:42;2.35;;;1.60;;
44564;SDS011;30275;51.822;-0.326;2022-07-31T07:45:08;2.97;;;1.88;;
44564;SDS011;30275;51.822;-0.326;2022-07-31T07:47:35;1.52;;;1.20;;
44564;SDS011;30275;51.822;-0.326;2022-07-31T07:50:01;2.28;;;1.40;;
44564;SDS011;30275;51.822;-0.326;2022-07-31T07:52:28;1.45;;;1.30;;
44564;SDS011;30275;51.822;-0.326;2022-07-31T07:54:54;1.65;;;1.40;;
44564;SDS011;30275;51.822;-0.326;2022-07-31T07:57:20;1.80;;;1.45;;
44564;SDS011;30275;51.822;-0.326;2022-07-31T07:59:46;3.58;;;1.40;;
44564;SDS011;30275;51.822;-0.326;2022-07-31T08:02:12;2.10;;;1.33;;
44564;SDS011;30275;51.822;-0.326;2022-07-31T08:04:38;1.75;;;1.33;;
44564;SDS011;30275;51.822;-0.326;2022-07-31T08:07:04;2.45;;;1.63;;
44564;SDS011;30275;51.822;-0.326;2022-07-31T08:09:33;2.15;;;1.40;;
44564;SDS011;30275;51.822;-0.326;2022-07-31T08:12:00;2.45;;;1.40;;
44564;SDS011;30275;51.822;-0.326;2022-07-31T08:14:26;1.38;;;1.17;;
44564;SDS011;30275;51.822;-0.326;2022-07-31T08:16:52;2.08;;;1.35;;
44564;SDS011;30275;51.822;-0.326;2022-07-31T08:19:19;3.70;;;1.63;;
44564;SDS011;30275;51.822;-0.326;2022-07-31T08:21:45;8.98;;;2.33;;
44564;SDS011;30275;51.822;-0.326;2022-07-31T08:24:10;8.10;;;2.05;;
44564;SDS011;30275;51.822;-0.326;2022-07-31T08:26:36;7.45;;;2.28;;
44564;SDS011;30275;51.822;-0.326;2022-07-31T08:29:21;3.35;;;1.70;;
44564;SDS011;30275;51.822;-0.326;2022-07-31T08:31:47;2.38;;;1.67;;
44564;SDS011;30275;51.822;-0.326;2022-07-31T08:34:13;3.63;;;1.50;;
44564;SDS011;30275;51.822;-0.326;2022-07-31T08:36:39;1.98;;;1.33;;
44564;SDS011;30275;51.822;-0.326;2022-07-31T08:39:05;3.75;;;1.70;;
44564;SDS011;30275;51.822;-0.326;2022-07-31T08:41:31;7.45;;;1.70;;
44564;SDS011;30275;51.822;-0.326;2022-07-31T08:43:57;2.63;;;1.63;;
44564;SDS011;30275;51.822;-0.326;2022-07-31T08:46:24;2.78;;;1.30;;
44564;SDS011;30275;51.822;-0.326;2022-07-31T08:48:50;2.63;;;1.30;;
44564;SDS011;30275;51.822;-0.326;2022-07-31T08:51:22;1.65;;;1.25;;
44564;SDS011;30275;51.822;-0.326;2022-07-31T08:53:51;4.72;;;1.38;;
44564;SDS011;30275;51.822;-0.326;2022-07-31T08:56:18;2.58;;;1.30;;
44564;SDS011;30275;51.822;-0.326;2022-07-31T08:58:44;2.65;;;1.30;;
44564;SDS011;30275;51.822;-0.326;2022-07-31T09:01:11;2.17;;;1.83;;
44564;SDS011;30275;51.822;-0.326;2022-07-31T09:03:37;2.85;;;1.23;;
44564;SDS011;30275;51.822;-0.326;2022-07-31T09:06:03;2.42;;;1.63;;
44564;SDS011;30275;51.822;-0.326;2022-07-31T09:08:33;3.90;;;1.48;;
44564;SDS011;30275;51.822;-0.326;2022-07-31T09:11:08;1.20;;;1.10;;
44564;SDS011;30275;51.822;-0.326;2022-07-31T09:13:35;2.83;;;1.85;;
44564;SDS011;30275;51.822;-0.326;2022-07-31T09:16:02;2.25;;;1.15;;
44564;SDS011;30275;51.822;-0.326;2022-07-31T09:18:29;3.72;;;1.30;;
44564;SDS011;30275;51.822;-0.326;2022-07-31T09:20:55;1.95;;;1.20;;
44564;SDS011;30275;51.822;-0.326;2022-07-31T09:23:26;3.83;;;1.52;;
44564;SDS011;30275;51.822;-0.326;2022-07-31T09:25:53;4.88;;;2.42;;
44564;SDS011;30275;51.822;-0.326;2022-07-31T09:28:30;2.20;;;1.15;;
44564;SDS011;30275;51.822;-0.326;2022-07-31T09:30:56;5.82;;;1.35;;
44564;SDS011;30275;51.822;-0.326;2022-07-31T09:33:22;3.67;;;1.27;;
44564;SDS011;30275;51.822;-0.326;2022-07-31T09:35:48;4.40;;;1.38;;
44564;SDS011;30275;51.822;-0.326;2022-07-31T09:38:15;3.13;;;1.17;;
44564;SDS011;30275;51.822;-0.326;2022-07-31T09:40:42;1.65;;;1.10;;
44564;SDS011;30275;51.822;-0.326;2022-07-31T09:43:14;4.57;;;1.52;;
44564;SDS011;30275;51.822;-0.326;2022-07-31T09:45:43;6.13;;;1.50;;
44564;SDS011;30275;51.822;-0.326;2022-07-31T09:48:10;3.50;;;1.73;;
44564;SDS011;30275;51.822;-0.326;2022-07-31T09:50:37;3.90;;;1.27;;
44564;SDS011;30275;51.822;-0.326;2022-07-31T09:53:22;2.28;;;1.10;;
44564;SDS011;30275;51.822;-0.326;2022-07-31T09:55:52;2.75;;;1.15;;
44564;SDS011;30275;51.822;-0.326;2022-07-31T09:58:19;5.20;;;1.25;;
44564;SDS011;30275;51.822;-0.326;2022-07-31T10:00:46;5.32;;;1.55;;
44564;SDS011;30275;51.822;-0.326;2022-07-31T10:03:14;5.65;;;1.38;;
44564;SDS011;30275;51.822;-0.326;2022-07-31T10:05:43;2.40;;;1.08;;
44564;SDS011;30275;51.822;-0.326;2022-07-31T10:08:11;2.17;;;1.33;;
44564;SDS011;30275;51.822;-0.326;2022-07-31T10:10:38;2.72;;;0.88;;
44564;SDS011;30275;51.822;-0.326;2022-07-31T10:13:07;2.47;;;1.17;;
44564;SDS011;30275;51.822;-0.326;2022-07-31T10:15:39;1.85;;;0.75;;
44564;SDS011;30275;51.822;-0.326;2022-07-31T10:18:09;3.47;;;0.93;;
44564;SDS011;30275;51.822;-0.326;2022-07-31T10:20:35;2.40;;;1.00;;
44564;SDS011;30275;51.822;-0.326;2022-07-31T10:23:13;1.38;;;0.70;;
44564;SDS011;30275;51.822;-0.326;2022-07-31T10:25:55;1.35;;;0.93;;
44564;SDS011;30275;51.822;-0.326;2022-07-31T10:28:23;2.88;;;0.95;;
44564;SDS011;30275;51.822;-0.326;2022-07-31T10:30:51;1.90;;;0.95;;
44564;SDS011;30275;51.822;-0.326;2022-07-31T10:33:17;3.90;;;1.10;;
44564;SDS011;30275;51.822;-0.326;2022-07-31T10:35:45;1.88;;;1.00;;
44564;SDS011;30275;51.822;-0.326;2022-07-31T10:38:34;1.27;;;1.00;;
44564;SDS011;30275;51.822;-0.326;2022-07-31T10:44:19;1.30;;;0.93;;
44564;SDS011;30275;51.822;-0.326;2022-07-31T10:47:10;1.67;;;1.02;;
44564;SDS011;30275;51.822;-0.326;2022-07-31T10:49:40;1.40;;;1.02;;
44564;SDS011;30275;51.822;-0.326;2022-07-31T10:52:10;3.60;;;1.10;;
44564;SDS011;30275;51.822;-0.326;2022-07-31T10:54:40;2.08;;;1.17;;
44564;SDS011;30275;51.822;-0.326;2022-07-31T10:57:07;1.45;;;0.80;;
44564;SDS011;30275;51.822;-0.326;2022-07-31T10:59:33;1.25;;;1.02;;
44564;SDS011;30275;51.822;-0.326;2022-07-31T11:01:59;0.98;;;0.75;;
44564;SDS011;30275;51.822;-0.326;2022-07-31T11:04:29;1.40;;;0.82;;
44564;SDS011;30275;51.822;-0.326;2022-07-31T11:06:58;1.52;;;0.90;;
44564;SDS011;30275;51.822;-0.326;2022-07-31T11:09:25;1.85;;;0.93;;
44564;SDS011;30275;51.822;-0.326;2022-07-31T11:11:53;2.00;;;1.10;;
44564;SDS011;30275;51.822;-0.326;2022-07-31T11:14:33;2.42;;;0.95;;
44564;SDS011;30275;51.822;-0.326;2022-07-31T11:17:00;1.15;;;0.80;;
44564;SDS011;30275;51.822;-0.326;2022-07-31T11:19:35;2.97;;;1.20;;
44564;SDS011;30275;51.822;-0.326;2022-07-31T11:22:12;0.98;;;0.82;;
44564;SDS011;30275;51.822;-0.326;2022-07-31T11:24:39;1.77;;;0.80;;
44564;SDS011;30275;51.822;-0.326;2022-07-31T11:27:05;0.80;;;0.80;;
44564;SDS011;30275;51.822;-0.326;2022-07-31T11:29:32;1.42;;;1.10;;
44564;SDS011;30275;51.822;-0.326;2022-07-31T11:32:20;0.93;;;0.82;;
44564;SDS011;30275;51.822;-0.326;2022-07-31T11:34:52;1.40;;;1.00;;
44564;SDS011;30275;51.822;-0.326;2022-07-31T11:37:20;1.13;;;0.80;;
44564;SDS011;30275;51.822;-0.326;2022-07-31T11:39:51;2.20;;;0.90;;
44564;SDS011;30275;51.822;-0.326;2022-07-31T11:42:18;0.80;;;0.80;;
44564;SDS011;30275;51.822;-0.326;2022-07-31T11:44:44;1.00;;;0.90;;
44564;SDS011;30275;51.822;-0.326;2022-07-31T11:47:10;1.17;;;0.98;;
44564;SDS011;30275;51.822;-0.326;2022-07-31T11:49:36;0.77;;;0.77;;
44564;SDS011;30275;51.822;-0.326;2022-07-31T11:52:03;2.08;;;1.10;;
44564;SDS011;30275;51.822;-0.326;2022-07-31T11:54:35;1.80;;;0.77;;
44564;SDS011;30275;51.822;-0.326;2022-07-31T11:57:01;2.05;;;1.00;;
44564;SDS011;30275;51.822;-0.326;2022-07-31T11:59:30;1.05;;;0.90;;
44564;SDS011;30275;51.822;-0.326;2022-07-31T12:02:03;1.10;;;0.88;;
44564;SDS011;30275;51.822;-0.326;2022-07-31T12:04:30;1.67;;;0.90;;
44564;SDS011;30275;51.822;-0.326;2022-07-31T12:06:57;2.70;;;1.00;;
44564;SDS011;30275;51.822;-0.326;2022-07-31T12:09:24;0.93;;;0.80;;
44564;SDS011;30275;51.822;-0.326;2022-07-31T12:11:50;1.05;;;0.73;;
44564;SDS011;30275;51.822;-0.326;2022-07-31T12:17:20;1.47;;;0.80;;
44564;SDS011;30275;51.822;-0.326;2022-07-31T12:19:46;1.10;;;0.80;;
44564;SDS011;30275;51.822;-0.326;2022-07-31T12:22:16;0.80;;;0.80;;
44564;SDS011;30275;51.822;-0.326;2022-07-31T12:24:43;1.08;;;0.90;;
44564;SDS011;30275;51.822;-0.326;2022-07-31T12:27:12;1.23;;;0.80;;
44564;SDS011;30275;51.822;-0.326;2022-07-31T12:29:39;1.83;;;0.88;;
44564;SDS011;30275;51.822;-0.326;2022-07-31T12:32:05;1.20;;;0.80;;
44564;SDS011;30275;51.822;-0.326;2022-07-31T12:34:35;0.85;;;0.85;;
44564;SDS011;30275;51.822;-0.326;2022-07-31T12:37:06;0.75;;;0.75;;
44564;SDS011;30275;51.822;-0.326;2022-07-31T12:44:50;1.17;;;1.08;;
44564;SDS011;30275;51.822;-0.326;2022-07-31T12:47:23;0.82;;;0.82;;
44564;SDS011;30275;51.822;-0.326;2022-07-31T12:49:50;0.85;;;0.85;;
44564;SDS011;30275;51.822;-0.326;2022-07-31T12:52:16;0.90;;;0.90;;
44564;SDS011;30275;51.822;-0.326;2022-07-31T12:54:43;0.70;;;0.70;;
44564;SDS011;30275;51.822;-0.326;2022-07-31T12:57:09;0.85;;;0.73;;
44564;SDS011;30275;51.822;-0.326;2022-07-31T12:59:35;0.77;;;0.77;;
44564;SDS011;30275;51.822;-0.326;2022-07-31T13:02:01;1.05;;;0.95;;
44564;SDS011;30275;51.822;-0.326;2022-07-31T13:04:27;0.88;;;0.70;;
44564;SDS011;30275;51.822;-0.326;2022-07-31T13:06:53;1.10;;;1.00;;
44564;SDS011;30275;51.822;-0.326;2022-07-31T13:09:19;1.20;;;0.90;;
44564;SDS011;30275;51.822;-0.326;2022-07-31T13:11:45;1.35;;;0.90;;
44564;SDS011;30275;51.822;-0.326;2022-07-31T13:14:11;0.93;;;0.85;;
44564;SDS011;30275;51.822;-0.326;2022-07-31T13:16:37;0.77;;;0.77;;
44564;SDS011;30275;51.822;-0.326;2022-07-31T13:19:02;1.00;;;0.93;;
44564;SDS011;30275;51.822;-0.326;2022-07-31T13:21:29;0.70;;;0.70;;
44564;SDS011;30275;51.822;-0.326;2022-07-31T13:23:55;0.80;;;0.80;;
44564;SDS011;30275;51.822;-0.326;2022-07-31T13:26:22;0.65;;;0.65;;
44564;SDS011;30275;51.822;-0.326;2022-07-31T13:28:48;0.90;;;0.90;;
44564;SDS011;30275;51.822;-0.326;2022-07-31T13:31:13;0.70;;;0.70;;
44564;SDS011;30275;51.822;-0.326;2022-07-31T13:33:39;0.75;;;0.75;;
44564;SDS011;30275;51.822;-0.326;2022-07-31T13:36:05;1.40;;;1.00;;
44564;SDS011;30275;51.822;-0.326;2022-07-31T13:38:31;1.10;;;0.95;;
44564;SDS011;30275;51.822;-0.326;2022-07-31T13:40:57;0.80;;;0.80;;
44564;SDS011;30275;51.822;-0.326;2022-07-31T13:43:41;0.70;;;0.70;;
44564;SDS011;30275;51.822;-0.326;2022-07-31T13:46:07;2.97;;;0.90;;
44564;SDS011;30275;51.822;-0.326;2022-07-31T13:48:33;3.85;;;1.20;;
44564;SDS011;30275;51.822;-0.326;2022-07-31T13:50:59;2.13;;;0.90;;
44564;SDS011;30275;51.822;-0.326;2022-07-31T13:53:25;3.42;;;1.00;;
44564;SDS011;30275;51.822;-0.326;2022-07-31T13:55:52;2.28;;;0.90;;
44564;SDS011;30275;51.822;-0.326;2022-07-31T13:58:18;1.52;;;1.08;;
44564;SDS011;30275;51.822;-0.326;2022-07-31T14:00:44;1.45;;;0.90;;
44564;SDS011;30275;51.822;-0.326;2022-07-31T14:03:11;0.95;;;0.90;;
44564;SDS011;30275;51.822;-0.326;2022-07-31T14:05:37;2.53;;;1.10;;
44564;SDS011;30275;51.822;-0.326;2022-07-31T14:08:03;0.77;;;0.77;;
44564;SDS011;30275;51.822;-0.326;2022-07-31T14:10:29;1.10;;;1.00;;
44564;SDS011;30275;51.822;-0.326;2022-07-31T14:12:55;2.05;;;0.80;;
44564;SDS011;30275;51.822;-0.326;2022-07-31T14:15:21;1.30;;;1.00;;
44564;SDS011;30275;51.822;-0.326;2022-07-31T14:17:47;0.80;;;0.80;;
44564;SDS011;30275;51.822;-0.326;2022-07-31T14:20:13;0.80;;;0.80;;
44564;SDS011;30275;51.822;-0.326;2022-07-31T14:22:39;0.80;;;0.60;;
44564;SDS011;30275;51.822;-0.326;2022-07-31T14:25:05;0.82;;;0.82;;
44564;SDS011;30275;51.822;-0.326;2022-07-31T14:27:31;1.13;;;0.98;;
44564;SDS011;30275;51.822;-0.326;2022-07-31T14:29:58;1.15;;;0.80;;
44564;SDS011;30275;51.822;-0.326;2022-07-31T14:32:24;0.80;;;0.80;;
44564;SDS011;30275;51.822;-0.326;2022-07-31T14:34:50;1.38;;;1.20;;
44564;SDS011;30275;51.822;-0.326;2022-07-31T14:37:16;1.38;;;0.80;;
44564;SDS011;30275;51.822;-0.326;2022-07-31T14:39:41;2.78;;;0.90;;
44564;SDS011;30275;51.822;-0.326;2022-07-31T14:42:08;0.80;;;0.80;;
44564;SDS011;30275;51.822;-0.326;2022-07-31T14:44:33;1.13;;;0.90;;
44564;SDS011;30275;51.822;-0.326;2022-07-31T14:46:59;2.30;;;0.95;;
44564;SDS011;30275;51.822;-0.326;2022-07-31T14:49:25;0.90;;;0.80;;